sensor_id;sensor_type;location;lat;lon;timestamp;pressure;altitude;pressure_sealevel;temperature;humidity
8697;BME280;4385;48.848;8.924;2023-06-04T00:02:02;97395.66;;;21.62;100.00
8697;BME280;4385;48.848;8.924;2023-06-04T00:04:28;97395.66;;;21.62;100.00
8697;BME280;4385;48.848;8.924;2023-06-04T00:06:54;97402.56;;;21.60;100.00
8697;BME280;4385;48.848;8.924;2023-06-04T00:09:19;97397.44;;;21.60;100.00
8697;BME280;4385;48.848;8.924;2023-06-04T00:11:45;97389.75;;;21.60;100.00
8697;BME280;4385;48.848;8.924;2023-06-04T00:14:11;97394.88;;;21.60;100.00
8697;BME280;4385;48.848;8.924;2023-06-04T00:16:36;97394.88;;;21.60;100.00
8697;BME280;4385;48.848;8.924;2023-06-04T00:19:02;97399.16;;;21.59;100.00
8697;BME280;4385;48.848;8.924;2023-06-04T00:21:28;97396.66;;;21.58;100.00
8697;BME280;4385;48.848;8.924;2023-06-04T00:23:53;97400.13;;;21.57;100.00
8697;BME280;4385;48.848;8.924;2023-06-04T00:26:18;97395.00;;;21.57;100.00
8697;BME280;4385;48.848;8.924;2023-06-04T00:28:44;97390.81;;;21.54;100.00
8697;BME280;4385;48.848;8.924;2023-06-04T00:31:09;97392.50;;;21.55;100.00
8697;BME280;4385;48.848;8.924;2023-06-04T00:33:35;97393.38;;;21.54;100.00
8697;BME280;4385;48.848;8.924;2023-06-04T00:36:01;97395.09;;;21.53;100.00
8697;BME280;4385;48.848;8.924;2023-06-04T00:38:26;97391.75;;;21.51;100.00
8697;BME280;4385;48.848;8.924;2023-06-04T00:40:52;97396.88;;;21.51;100.00
8697;BME280;4385;48.848;8.924;2023-06-04T00:43:17;97390.09;;;21.50;100.00
8697;BME280;4385;48.848;8.924;2023-06-04T00:45:43;97391.00;;;21.49;100.00
8697;BME280;4385;48.848;8.924;2023-06-04T00:48:09;97398.69;;;21.49;100.00
8697;BME280;4385;48.848;8.924;2023-06-04T00:50:35;97402.13;;;21.48;100.00
8697;BME280;4385;48.848;8.924;2023-06-04T00:53:01;97409.81;;;21.48;100.00
8697;BME280;4385;48.848;8.924;2023-06-04T00:55:26;97411.63;;;21.46;100.00
8697;BME280;4385;48.848;8.924;2023-06-04T00:57:51;97413.34;;;21.46;100.00
8697;BME280;4385;48.848;8.924;2023-06-04T01:00:17;97413.44;;;21.42;100.00
8697;BME280;4385;48.848;8.924;2023-06-04T01:02:43;97415.94;;;21.44;100.00
8697;BME280;4385;48.848;8.924;2023-06-04T01:05:35;97412.59;;;21.42;100.00
8697;BME280;4385;48.848;8.924;2023-06-04T01:08:01;97415.22;;;21.40;100.00
8697;BME280;4385;48.848;8.924;2023-06-04T01:10:27;97407.56;;;21.39;100.00
8697;BME280;4385;48.848;8.924;2023-06-04T01:12:52;97420.38;;;21.39;100.00
8697;BME280;4385;48.848;8.924;2023-06-04T01:15:17;97419.56;;;21.38;100.00
8697;BME280;4385;48.848;8.924;2023-06-04T01:17:49;97415.31;;;21.37;100.00
8697;BME280;4385;48.848;8.924;2023-06-04T01:20:39;97413.59;;;21.38;100.00
8697;BME280;4385;48.848;8.924;2023-06-04T01:25:41;97421.28;;;21.38;100.00
8697;BME280;4385;48.848;8.924;2023-06-04T01:28:10;97419.63;;;21.37;100.00
8697;BME280;4385;48.848;8.924;2023-06-04T01:30:37;97428.19;;;21.36;100.00
8697;BME280;4385;48.848;8.924;2023-06-04T01:33:09;97416.28;;;21.35;100.00
8697;BME280;4385;48.848;8.924;2023-06-04T01:35:38;97413.75;;;21.33;100.00
8697;BME280;4385;48.848;8.924;2023-06-04T01:38:03;97404.44;;;21.30;100.00
8697;BME280;4385;48.848;8.924;2023-06-04T01:40:29;97409.56;;;21.30;100.00
8697;BME280;4385;48.848;8.924;2023-06-04T01:42:55;97408.81;;;21.28;100.00
8697;BME280;4385;48.848;8.924;2023-06-04T01:45:22;97406.25;;;21.28;100.00
8697;BME280;4385;48.848;8.924;2023-06-04T01:47:47;97415.63;;;21.28;100.00
8697;BME280;4385;48.848;8.924;2023-06-04T01:50:12;97411.38;;;21.28;100.00
8697;BME280;4385;48.848;8.924;2023-06-04T01:52:39;97410.56;;;21.26;100.00
8697;BME280;4385;48.848;8.924;2023-06-04T01:55:06;97408.06;;;21.25;100.00
8697;BME280;4385;48.848;8.924;2023-06-04T01:57:32;97421.72;;;21.25;100.00
8697;BME280;4385;48.848;8.924;2023-06-04T01:59:58;97414.09;;;21.24;100.00
8697;BME280;4385;48.848;8.924;2023-06-04T02:02:23;97419.22;;;21.24;100.00
8697;BME280;4385;48.848;8.924;2023-06-04T02:04:48;97420.13;;;21.21;100.00
8697;BME280;4385;48.848;8.924;2023-06-04T02:07:17;97421.88;;;21.21;100.00
8697;BME280;4385;48.848;8.924;2023-06-04T02:09:46;97412.44;;;21.21;100.00
8697;BME280;4385;48.848;8.924;2023-06-04T02:12:11;97416.81;;;21.19;100.00
8697;BME280;4385;48.848;8.924;2023-06-04T02:14:36;97416.81;;;21.19;100.00
8697;BME280;4385;48.848;8.924;2023-06-04T02:17:03;97428.78;;;21.18;100.00
8697;BME280;4385;48.848;8.924;2023-06-04T02:19:29;97421.13;;;21.17;100.00
8697;BME280;4385;48.848;8.924;2023-06-04T02:21:55;97422.84;;;21.16;100.00
8697;BME280;4385;48.848;8.924;2023-06-04T02:24:21;97426.25;;;21.17;100.00
8697;BME280;4385;48.848;8.924;2023-06-04T02:26:46;97422.03;;;21.16;100.00
8697;BME280;4385;48.848;8.924;2023-06-04T02:29:12;97428.03;;;21.15;100.00
8697;BME280;4385;48.848;8.924;2023-06-04T02:31:37;97433.22;;;21.13;100.00
8697;BME280;4385;48.848;8.924;2023-06-04T02:34:03;97426.38;;;21.14;100.00
8697;BME280;4385;48.848;8.924;2023-06-04T02:36:29;97426.41;;;21.12;100.00
8697;BME280;4385;48.848;8.924;2023-06-04T02:38:54;97426.47;;;21.11;100.00
8697;BME280;4385;48.848;8.924;2023-06-04T02:41:21;97430.81;;;21.09;100.00
8697;BME280;4385;48.848;8.924;2023-06-04T02:43:46;97437.63;;;21.10;100.00
8697;BME280;4385;48.848;8.924;2023-06-04T02:46:11;97430.81;;;21.09;100.00
8697;BME280;4385;48.848;8.924;2023-06-04T02:48:37;97427.38;;;21.10;100.00
8697;BME280;4385;48.848;8.924;2023-06-04T02:51:02;97434.25;;;21.08;100.00
8697;BME280;4385;48.848;8.924;2023-06-04T02:53:27;97434.25;;;21.08;100.00
8697;BME280;4385;48.848;8.924;2023-06-04T02:55:53;97427.47;;;21.07;100.00
8697;BME280;4385;48.848;8.924;2023-06-04T02:58:18;97431.75;;;21.06;100.00
8697;BME280;4385;48.848;8.924;2023-06-04T03:00:44;97430.03;;;21.07;100.00
8697;BME280;4385;48.848;8.924;2023-06-04T03:03:10;97429.19;;;21.06;100.00
8697;BME280;4385;48.848;8.924;2023-06-04T03:05:35;97434.38;;;21.04;100.00
8697;BME280;4385;48.848;8.924;2023-06-04T03:08:02;97435.25;;;21.03;100.00
8697;BME280;4385;48.848;8.924;2023-06-04T03:10:28;97436.03;;;21.05;100.00
8697;BME280;4385;48.848;8.924;2023-06-04T03:12:54;97439.50;;;21.04;100.00
8697;BME280;4385;48.848;8.924;2023-06-04T03:15:20;97445.50;;;21.03;100.00
8697;BME280;4385;48.848;8.924;2023-06-04T03:17:45;97435.25;;;21.03;100.00
8697;BME280;4385;48.848;8.924;2023-06-04T03:20:10;97444.72;;;21.01;100.00
8697;BME280;4385;48.848;8.924;2023-06-04T03:22:36;97447.28;;;21.01;100.00
8697;BME280;4385;48.848;8.924;2023-06-04T03:25:02;97443.88;;;21.01;100.00
8697;BME280;4385;48.848;8.924;2023-06-04T03:27:29;97447.13;;;21.06;100.00
8697;BME280;4385;48.848;8.924;2023-06-04T03:29:55;97446.28;;;21.05;100.00
8697;BME280;4385;48.848;8.924;2023-06-04T03:32:20;97445.47;;;21.05;100.00
8697;BME280;4385;48.848;8.924;2023-06-04T03:34:46;97444.63;;;21.04;100.00
8697;BME280;4385;48.848;8.924;2023-06-04T03:37:11;97455.72;;;21.05;100.00
8697;BME280;4385;48.848;8.924;2023-06-04T03:39:36;97445.56;;;21.02;100.00
8697;BME280;4385;48.848;8.924;2023-06-04T03:42:01;97454.13;;;21.01;100.00
8697;BME280;4385;48.848;8.924;2023-06-04T03:44:27;97449.00;;;21.01;100.00
8697;BME280;4385;48.848;8.924;2023-06-04T03:46:53;97450.75;;;21.00;100.00
8697;BME280;4385;48.848;8.924;2023-06-04T03:49:18;97456.72;;;20.99;100.00
8697;BME280;4385;48.848;8.924;2023-06-04T03:51:44;97453.41;;;20.97;100.00
8697;BME280;4385;48.848;8.924;2023-06-04T03:54:10;97452.56;;;20.97;100.00
8697;BME280;4385;48.848;8.924;2023-06-04T03:56:35;97454.28;;;20.96;100.00
8697;BME280;4385;48.848;8.924;2023-06-04T03:59:00;97458.63;;;20.94;100.00
8697;BME280;4385;48.848;8.924;2023-06-04T04:01:26;97453.50;;;20.94;100.00
8697;BME280;4385;48.848;8.924;2023-06-04T04:03:52;97451.00;;;20.92;100.00
8697;BME280;4385;48.848;8.924;2023-06-04T04:06:18;97461.25;;;20.92;100.00
8697;BME280;4385;48.848;8.924;2023-06-04T04:08:44;97458.72;;;20.91;100.00
8697;BME280;4385;48.848;8.924;2023-06-04T04:11:13;97461.34;;;20.88;100.00
8697;BME280;4385;48.848;8.924;2023-06-04T04:13:39;97454.50;;;20.88;100.00
8697;BME280;4385;48.848;8.924;2023-06-04T04:16:04;97457.91;;;20.89;100.00
8697;BME280;4385;48.848;8.924;2023-06-04T04:18:33;97470.81;;;20.86;100.00
8697;BME280;4385;48.848;8.924;2023-06-04T04:20:59;97475.94;;;20.86;100.00
8697;BME280;4385;48.848;8.924;2023-06-04T04:23:24;97472.47;;;20.87;100.00
8697;BME280;4385;48.848;8.924;2023-06-04T04:25:50;97469.13;;;20.85;100.00
8697;BME280;4385;48.848;8.924;2023-06-04T04:28:15;97476.81;;;20.85;100.00
8697;BME280;4385;48.848;8.924;2023-06-04T04:30:42;97472.56;;;20.84;100.00
8697;BME280;4385;48.848;8.924;2023-06-04T04:33:09;97479.38;;;20.85;100.00
8697;BME280;4385;48.848;8.924;2023-06-04T04:35:35;97470.91;;;20.83;100.00
8697;BME280;4385;48.848;8.924;2023-06-04T04:38:00;97482.81;;;20.84;100.00
8697;BME280;4385;48.848;8.924;2023-06-04T04:40:28;97483.72;;;20.83;100.00
8697;BME280;4385;48.848;8.924;2023-06-04T04:42:55;97476.94;;;20.81;100.00
8697;BME280;4385;48.848;8.924;2023-06-04T04:45:20;97477.78;;;20.80;100.00
8697;BME280;4385;48.848;8.924;2023-06-04T04:47:46;97488.06;;;20.79;100.00
8697;BME280;4385;48.848;8.924;2023-06-04T04:50:12;97486.38;;;20.79;100.00
8697;BME280;4385;48.848;8.924;2023-06-04T04:52:37;97490.63;;;20.79;100.00
8697;BME280;4385;48.848;8.924;2023-06-04T04:55:02;97484.69;;;20.78;100.00
8697;BME280;4385;48.848;8.924;2023-06-04T04:57:28;97481.25;;;20.79;100.00
8697;BME280;4385;48.848;8.924;2023-06-04T04:59:53;97484.69;;;20.78;100.00
8697;BME280;4385;48.848;8.924;2023-06-04T05:02:18;97480.44;;;20.77;100.00
8697;BME280;4385;48.848;8.924;2023-06-04T05:04:44;97486.47;;;20.76;100.00
8697;BME280;4385;48.848;8.924;2023-06-04T05:07:09;97489.03;;;20.76;100.00
8697;BME280;4385;48.848;8.924;2023-06-04T05:09:34;97491.50;;;20.79;100.00
8697;BME280;4385;48.848;8.924;2023-06-04T05:12:00;97488.88;;;20.81;100.00
8697;BME280;4385;48.848;8.924;2023-06-04T05:14:25;97489.63;;;20.85;100.00
8697;BME280;4385;48.848;8.924;2023-06-04T05:16:50;97494.00;;;20.81;100.00
8697;BME280;4385;48.848;8.924;2023-06-04T05:19:16;97493.16;;;20.80;100.00
8697;BME280;4385;48.848;8.924;2023-06-04T05:21:42;97499.88;;;20.85;100.00
8697;BME280;4385;48.848;8.924;2023-06-04T05:24:08;97505.00;;;20.85;100.00
8697;BME280;4385;48.848;8.924;2023-06-04T05:26:34;97504.94;;;20.86;100.00
8697;BME280;4385;48.848;8.924;2023-06-04T05:28:59;97510.88;;;20.87;100.00
8697;BME280;4385;48.848;8.924;2023-06-04T05:31:26;97513.44;;;20.87;100.00
8697;BME280;4385;48.848;8.924;2023-06-04T05:33:52;97515.97;;;20.88;100.00
8697;BME280;4385;48.848;8.924;2023-06-04T05:36:17;97512.63;;;20.86;100.00
8697;BME280;4385;48.848;8.924;2023-06-04T05:38:43;97504.94;;;20.86;100.00
8697;BME280;4385;48.848;8.924;2023-06-04T05:41:08;97513.50;;;20.85;100.00
8697;BME280;4385;48.848;8.924;2023-06-04T05:43:33;97520.34;;;20.85;100.00
8697;BME280;4385;48.848;8.924;2023-06-04T05:45:59;97520.34;;;20.85;100.00
8697;BME280;4385;48.848;8.924;2023-06-04T05:48:25;97517.81;;;20.85;100.00
8697;BME280;4385;48.848;8.924;2023-06-04T05:50:50;97512.63;;;20.86;100.00
8697;BME280;4385;48.848;8.924;2023-06-04T05:53:16;97517.75;;;20.86;100.00
8697;BME280;4385;48.848;8.924;2023-06-04T05:55:41;97518.56;;;20.87;100.00
8697;BME280;4385;48.848;8.924;2023-06-04T05:58:06;97517.75;;;20.86;100.00
8697;BME280;4385;48.848;8.924;2023-06-04T06:00:32;97516.91;;;20.86;100.00
8697;BME280;4385;48.848;8.924;2023-06-04T06:02:57;97523.69;;;20.87;100.00
8697;BME280;4385;48.848;8.924;2023-06-04T06:05:22;97521.13;;;20.87;100.00
8697;BME280;4385;48.848;8.924;2023-06-04T06:07:48;97534.78;;;20.87;100.00
8697;BME280;4385;48.848;8.924;2023-06-04T06:10:13;97528.00;;;20.86;100.00
8697;BME280;4385;48.848;8.924;2023-06-04T06:12:39;97527.16;;;20.86;100.00
8697;BME280;4385;48.848;8.924;2023-06-04T06:15:05;97528.75;;;20.88;100.00
8697;BME280;4385;48.848;8.924;2023-06-04T06:17:31;97524.53;;;20.87;100.00
8697;BME280;4385;48.848;8.924;2023-06-04T06:19:56;97528.81;;;20.87;100.00
8697;BME280;4385;48.848;8.924;2023-06-04T06:22:22;97527.16;;;20.86;100.00
8697;BME280;4385;48.848;8.924;2023-06-04T06:24:47;97536.50;;;20.87;100.00
8697;BME280;4385;48.848;8.924;2023-06-04T06:27:16;97528.81;;;20.87;100.00
8697;BME280;4385;48.848;8.924;2023-06-04T06:29:41;97533.13;;;20.86;100.00
8697;BME280;4385;48.848;8.924;2023-06-04T06:32:08;97539.06;;;20.87;100.00
8697;BME280;4385;48.848;8.924;2023-06-04T06:34:33;97545.88;;;20.88;100.00
8697;BME280;4385;48.848;8.924;2023-06-04T06:36:58;97537.28;;;20.89;100.00
8697;BME280;4385;48.848;8.924;2023-06-04T06:39:23;97544.19;;;20.87;100.00
8697;BME280;4385;48.848;8.924;2023-06-04T06:41:49;97546.75;;;20.87;100.00
8697;BME280;4385;48.848;8.924;2023-06-04T06:44:14;97536.53;;;20.85;100.00
8697;BME280;4385;48.848;8.924;2023-06-04T06:46:39;97548.47;;;20.86;100.00
8697;BME280;4385;48.848;8.924;2023-06-04T06:49:05;97549.31;;;20.87;100.00
8697;BME280;4385;48.848;8.924;2023-06-04T06:51:30;97555.19;;;20.90;100.00
8697;BME280;4385;48.848;8.924;2023-06-04T06:53:55;97550.94;;;20.91;100.00
8697;BME280;4385;48.848;8.924;2023-06-04T06:56:21;97556.06;;;20.91;100.00
8697;BME280;4385;48.848;8.924;2023-06-04T06:58:47;97553.41;;;20.94;100.00
8697;BME280;4385;48.848;8.924;2023-06-04T07:01:13;97549.03;;;20.96;100.00
8697;BME280;4385;48.848;8.924;2023-06-04T07:03:38;97546.47;;;20.96;100.00
8697;BME280;4385;48.848;8.924;2023-06-04T07:06:05;97554.16;;;20.96;100.00
8697;BME280;4385;48.848;8.924;2023-06-04T07:08:31;97554.06;;;20.99;100.00
8697;BME280;4385;48.848;8.924;2023-06-04T07:10:56;97565.16;;;21.00;100.00
8697;BME280;4385;48.848;8.924;2023-06-04T07:13:21;97558.38;;;20.99;100.00
8697;BME280;4385;48.848;8.924;2023-06-04T07:15:47;97560.09;;;20.98;100.00
8697;BME280;4385;48.848;8.924;2023-06-04T07:18:12;97564.31;;;20.99;100.00
8697;BME280;4385;48.848;8.924;2023-06-04T07:20:37;97560.09;;;20.98;100.00
8697;BME280;4385;48.848;8.924;2023-06-04T07:23:03;97566.00;;;21.00;100.00
8697;BME280;4385;48.848;8.924;2023-06-04T07:25:28;97557.44;;;21.01;100.00
8697;BME280;4385;48.848;8.924;2023-06-04T07:27:53;97566.00;;;21.00;100.00
8697;BME280;4385;48.848;8.924;2023-06-04T07:30:23;97557.44;;;21.01;100.00
8697;BME280;4385;48.848;8.924;2023-06-04T07:32:48;97560.84;;;21.02;100.00
8697;BME280;4385;48.848;8.924;2023-06-04T07:35:14;97560.88;;;21.00;100.00
8697;BME280;4385;48.848;8.924;2023-06-04T07:37:39;97553.97;;;21.02;100.00
8697;BME280;4385;48.848;8.924;2023-06-04T07:40:05;97555.66;;;21.03;100.00
8697;BME280;4385;48.848;8.924;2023-06-04T07:42:30;97556.53;;;21.02;100.00
8697;BME280;4385;48.848;8.924;2023-06-04T07:44:55;97557.44;;;21.01;100.00
8697;BME280;4385;48.848;8.924;2023-06-04T07:47:21;97558.31;;;21.00;100.00
8697;BME280;4385;48.848;8.924;2023-06-04T07:49:47;97554.88;;;21.01;100.00
8697;BME280;4385;48.848;8.924;2023-06-04T07:52:12;97548.84;;;21.02;100.00
8697;BME280;4385;48.848;8.924;2023-06-04T07:54:38;97557.34;;;21.04;100.00
8697;BME280;4385;48.848;8.924;2023-06-04T07:57:06;97553.06;;;21.05;100.00
8697;BME280;4385;48.848;8.924;2023-06-04T07:59:31;97554.72;;;21.06;100.00
8697;BME280;4385;48.848;8.924;2023-06-04T08:01:56;97544.31;;;21.11;100.00
8697;BME280;4385;48.848;8.924;2023-06-04T08:04:22;97545.91;;;21.15;100.00
8697;BME280;4385;48.848;8.924;2023-06-04T08:06:47;97539.81;;;21.19;100.00
8697;BME280;4385;48.848;8.924;2023-06-04T08:09:12;97539.69;;;21.22;100.00
8697;BME280;4385;48.848;8.924;2023-06-04T08:11:41;97536.13;;;21.26;100.00
8697;BME280;4385;48.848;8.924;2023-06-04T08:14:07;97535.25;;;21.27;100.00
8697;BME280;4385;48.848;8.924;2023-06-04T08:16:32;97539.50;;;21.28;100.00
8697;BME280;4385;48.848;8.924;2023-06-04T08:18:57;97534.38;;;21.28;100.00
8697;BME280;4385;48.848;8.924;2023-06-04T08:21:26;97537.75;;;21.29;100.00
8697;BME280;4385;48.848;8.924;2023-06-04T08:23:52;97538.56;;;21.31;100.00
8697;BME280;4385;48.848;8.924;2023-06-04T08:26:17;97535.06;;;21.34;100.00
8697;BME280;4385;48.848;8.924;2023-06-04T08:28:44;97538.44;;;21.34;100.00
8697;BME280;4385;48.848;8.924;2023-06-04T08:31:10;97542.72;;;21.35;100.00
8697;BME280;4385;48.848;8.924;2023-06-04T08:33:35;97540.16;;;21.35;100.00
8697;BME280;4385;48.848;8.924;2023-06-04T08:36:00;97542.56;;;21.40;100.00
8697;BME280;4385;48.848;8.924;2023-06-04T08:38:26;97546.69;;;21.44;100.00
8697;BME280;4385;48.848;8.924;2023-06-04T08:40:52;97540.59;;;21.47;100.00
8697;BME280;4385;48.848;8.924;2023-06-04T08:43:19;97549.03;;;21.50;100.00
8697;BME280;4385;48.848;8.924;2023-06-04T08:45:49;97548.81;;;21.57;100.00
8697;BME280;4385;48.848;8.924;2023-06-04T08:48:14;97543.50;;;21.63;100.00
8697;BME280;4385;48.848;8.924;2023-06-04T08:50:44;97543.28;;;21.69;100.00
8697;BME280;4385;48.848;8.924;2023-06-04T08:53:14;97549.88;;;21.76;100.00
8697;BME280;4385;48.848;8.924;2023-06-04T08:55:40;97543.00;;;21.78;100.00
8697;BME280;4385;48.848;8.924;2023-06-04T08:58:05;97537.84;;;21.78;100.00
8697;BME280;4385;48.848;8.924;2023-06-04T09:00:33;97556.59;;;21.80;100.00
8697;BME280;4385;48.848;8.924;2023-06-04T09:02:58;97553.94;;;21.84;100.00
8697;BME280;4385;48.848;8.924;2023-06-04T09:05:26;97546.94;;;21.87;100.00
8697;BME280;4385;48.848;8.924;2023-06-04T09:07:53;97556.19;;;21.93;100.00
8697;BME280;4385;48.848;8.924;2023-06-04T09:10:22;97552.59;;;21.97;100.00
8697;BME280;4385;48.848;8.924;2023-06-04T09:12:49;97558.47;;;22.01;100.00
8697;BME280;4385;48.848;8.924;2023-06-04T09:15:15;97560.88;;;22.05;100.00
8697;BME280;4385;48.848;8.924;2023-06-04T09:17:41;97559.97;;;22.07;100.00
8697;BME280;4385;48.848;8.924;2023-06-04T09:20:06;97555.75;;;22.05;100.00
8697;BME280;4385;48.848;8.924;2023-06-04T09:22:36;97563.44;;;22.05;100.00
8697;BME280;4385;48.848;8.924;2023-06-04T09:25:03;97559.97;;;22.07;100.00
8697;BME280;4385;48.848;8.924;2023-06-04T09:27:38;97548.78;;;22.08;100.00
8697;BME280;4385;48.848;8.924;2023-06-04T09:30:05;97570.91;;;22.12;100.00
8697;BME280;4385;48.848;8.924;2023-06-04T09:32:31;97563.16;;;22.13;100.00
8697;BME280;4385;48.848;8.924;2023-06-04T09:35:11;97563.91;;;22.15;100.00
8697;BME280;4385;48.848;8.924;2023-06-04T09:37:41;97564.66;;;22.19;100.00
8697;BME280;4385;48.848;8.924;2023-06-04T09:40:08;97562.09;;;22.19;100.00
8697;BME280;4385;48.848;8.924;2023-06-04T09:42:44;97561.19;;;22.20;100.00
8697;BME280;4385;48.848;8.924;2023-06-04T09:45:10;97556.06;;;22.20;100.00
8697;BME280;4385;48.848;8.924;2023-06-04T09:47:43;97560.31;;;22.21;100.00
8697;BME280;4385;48.848;8.924;2023-06-04T09:50:11;97561.97;;;22.22;100.00
8697;BME280;4385;48.848;8.924;2023-06-04T09:52:37;97555.19;;;22.21;100.00
8697;BME280;4385;48.848;8.924;2023-06-04T09:55:15;97556.72;;;22.25;100.00
8697;BME280;4385;48.848;8.924;2023-06-04T09:57:46;97572.00;;;22.28;100.00
8697;BME280;4385;48.848;8.924;2023-06-04T10:00:14;97551.47;;;22.28;100.00
8697;BME280;4385;48.848;8.924;2023-06-04T10:02:42;97565.97;;;22.29;100.00
8697;BME280;4385;48.848;8.924;2023-06-04T10:05:10;97558.28;;;22.29;100.00
8697;BME280;4385;48.848;8.924;2023-06-04T10:07:39;97554.84;;;22.30;100.00
8697;BME280;4385;48.848;8.924;2023-06-04T10:10:05;97552.16;;;22.34;100.00
8697;BME280;4385;48.848;8.924;2023-06-04T10:12:35;97551.25;;;22.35;100.00
8697;BME280;4385;48.848;8.924;2023-06-04T10:15:05;97549.41;;;22.38;100.00
8697;BME280;4385;48.848;8.924;2023-06-04T10:17:32;97541.84;;;22.35;100.00
8697;BME280;4385;48.848;8.924;2023-06-04T10:20:00;97540.88;;;22.38;100.00
8697;BME280;4385;48.848;8.924;2023-06-04T10:22:28;97542.53;;;22.39;100.00
8697;BME280;4385;48.848;8.924;2023-06-04T10:24:54;97545.94;;;22.39;100.00
8697;BME280;4385;48.848;8.924;2023-06-04T10:27:20;97540.75;;;22.41;100.00
8697;BME280;4385;48.848;8.924;2023-06-04T10:29:47;97535.50;;;22.44;100.00
8697;BME280;4385;48.848;8.924;2023-06-04T10:32:13;97536.47;;;22.41;100.00
8697;BME280;4385;48.848;8.924;2023-06-04T10:34:38;97528.81;;;22.40;100.00
8697;BME280;4385;48.848;8.924;2023-06-04T10:37:03;97540.75;;;22.41;100.00
8697;BME280;4385;48.848;8.924;2023-06-04T10:39:31;97539.09;;;22.40;100.00
8697;BME280;4385;48.848;8.924;2023-06-04T10:53:50;97534.34;;;22.75;100.00
8697;BME280;4385;48.848;8.924;2023-06-04T10:56:28;97528.38;;;22.75;100.00
8697;BME280;4385;48.848;8.924;2023-06-04T10:58:54;97525.84;;;22.73;100.00
8697;BME280;4385;48.848;8.924;2023-06-04T11:01:26;97531.78;;;22.75;100.00
8697;BME280;4385;48.848;8.924;2023-06-04T11:03:51;97536.81;;;22.78;100.00
8697;BME280;4385;48.848;8.924;2023-06-04T11:06:17;97535.91;;;22.79;100.00
8697;BME280;4385;48.848;8.924;2023-06-04T11:08:43;97533.25;;;22.81;100.00
8697;BME280;4385;48.848;8.924;2023-06-04T11:11:12;97523.84;;;22.82;100.00
8697;BME280;4385;48.848;8.924;2023-06-04T11:13:42;97529.75;;;22.84;100.00
8697;BME280;4385;48.848;8.924;2023-06-04T11:16:17;97523.72;;;22.85;100.00
8697;BME280;4385;48.848;8.924;2023-06-04T11:18:43;97525.44;;;22.84;100.00
8697;BME280;4385;48.848;8.924;2023-06-04T11:21:09;97523.72;;;22.85;100.00
8697;BME280;4385;48.848;8.924;2023-06-04T11:23:39;97523.72;;;22.85;100.00
8697;BME280;4385;48.848;8.924;2023-06-04T11:26:05;97524.56;;;22.85;100.00
8697;BME280;4385;48.848;8.924;2023-06-04T11:28:31;97530.50;;;22.86;100.00
8697;BME280;4385;48.848;8.924;2023-06-04T11:31:00;97525.38;;;22.86;100.00
8697;BME280;4385;48.848;8.924;2023-06-04T11:33:41;97527.94;;;22.86;100.00
8697;BME280;4385;48.848;8.924;2023-06-04T11:36:06;97527.94;;;22.86;100.00
8697;BME280;4385;48.848;8.924;2023-06-04T11:38:32;97522.81;;;22.86;100.00
8697;BME280;4385;48.848;8.924;2023-06-04T11:41:02;97525.38;;;22.86;100.00
8697;BME280;4385;48.848;8.924;2023-06-04T11:43:28;97515.94;;;22.86;100.00
8697;BME280;4385;48.848;8.924;2023-06-04T11:45:53;97509.97;;;22.86;100.00
8697;BME280;4385;48.848;8.924;2023-06-04T11:48:19;97516.84;;;22.85;100.00
8697;BME280;4385;48.848;8.924;2023-06-04T11:50:45;97517.66;;;22.86;100.00
8697;BME280;4385;48.848;8.924;2023-06-04T11:53:11;97511.59;;;22.88;100.00
8697;BME280;4385;48.848;8.924;2023-06-04T11:55:38;97514.09;;;22.90;100.00
8697;BME280;4385;48.848;8.924;2023-06-04T11:58:04;97506.50;;;22.87;100.00
8697;BME280;4385;48.848;8.924;2023-06-04T12:00:29;97508.19;;;22.88;100.00
8697;BME280;4385;48.848;8.924;2023-06-04T12:02:55;97504.69;;;22.89;100.00
8697;BME280;4385;48.848;8.924;2023-06-04T12:05:23;97509.59;;;22.95;100.00
8697;BME280;4385;48.848;8.924;2023-06-04T12:07:51;97507.94;;;22.94;100.00
8697;BME280;4385;48.848;8.924;2023-06-04T12:10:20;97503.69;;;22.93;100.00
8697;BME280;4385;48.848;8.924;2023-06-04T12:12:46;97500.22;;;22.94;100.00
8697;BME280;4385;48.848;8.924;2023-06-04T12:15:19;97493.34;;;22.95;100.00
8697;BME280;4385;48.848;8.924;2023-06-04T12:17:52;97491.66;;;22.94;100.00
8697;BME280;4385;48.848;8.924;2023-06-04T12:20:19;97497.66;;;22.94;100.00
8697;BME280;4385;48.848;8.924;2023-06-04T12:22:56;97501.13;;;22.93;100.00
8697;BME280;4385;48.848;8.924;2023-06-04T12:25:26;97494.31;;;22.92;100.00
8697;BME280;4385;48.848;8.924;2023-06-04T12:27:52;97487.50;;;22.91;100.00
8697;BME280;4385;48.848;8.924;2023-06-04T12:30:17;97498.63;;;22.91;100.00
8697;BME280;4385;48.848;8.924;2023-06-04T12:32:42;97494.31;;;22.92;100.00
8697;BME280;4385;48.848;8.924;2023-06-04T12:35:09;97499.44;;;22.92;100.00
8697;BME280;4385;48.848;8.924;2023-06-04T12:37:34;97502.00;;;22.92;100.00
8697;BME280;4385;48.848;8.924;2023-06-04T12:39:59;97502.84;;;22.92;100.00
8697;BME280;4385;48.848;8.924;2023-06-04T12:42:25;97508.00;;;22.92;100.00
8697;BME280;4385;48.848;8.924;2023-06-04T12:44:52;97507.09;;;22.94;100.00
8697;BME280;4385;48.848;8.924;2023-06-04T12:47:18;97501.13;;;22.93;100.00
8697;BME280;4385;48.848;8.924;2023-06-04T12:49:44;97507.09;;;22.94;100.00
8697;BME280;4385;48.848;8.924;2023-06-04T12:52:10;97503.69;;;22.93;100.00
8697;BME280;4385;48.848;8.924;2023-06-04T12:54:35;97503.69;;;22.93;100.00
8697;BME280;4385;48.848;8.924;2023-06-04T12:57:00;97501.94;;;22.94;100.00
8697;BME280;4385;48.848;8.924;2023-06-04T12:59:26;97501.06;;;22.95;100.00
8697;BME280;4385;48.848;8.924;2023-06-04T13:01:52;97500.16;;;22.96;100.00
8697;BME280;4385;48.848;8.924;2023-06-04T13:04:18;97497.47;;;22.99;100.00
8697;BME280;4385;48.848;8.924;2023-06-04T13:06:43;97492.38;;;22.97;100.00
8697;BME280;4385;48.848;8.924;2023-06-04T13:09:11;97490.78;;;22.95;100.00
8697;BME280;4385;48.848;8.924;2023-06-04T13:11:46;97492.44;;;22.96;100.00
8697;BME280;4385;48.848;8.924;2023-06-04T13:14:12;97494.19;;;22.95;100.00
8697;BME280;4385;48.848;8.924;2023-06-04T13:16:38;97488.22;;;22.95;100.00
8697;BME280;4385;48.848;8.924;2023-06-04T13:19:03;97485.72;;;22.93;100.00
8697;BME280;4385;48.848;8.924;2023-06-04T13:21:29;97493.34;;;22.95;100.00